createdAt,value
2019-04-21T00:02:29.875Z,41.08
2019-04-21T00:05:18.827Z,41.28
2019-04-21T00:07:54.217Z,40.93
2019-04-21T00:10:27.255Z,41.31
2019-04-21T00:12:52.019Z,41.61
2019-04-21T00:15:19.380Z,41.58
2019-04-21T00:17:43.625Z,41.75
2019-04-21T00:20:26.960Z,41.41
2019-04-21T00:23:10.215Z,41.65
2019-04-21T00:25:38.740Z,41.62
2019-04-21T00:28:25.114Z,41.43
2019-04-21T00:30:50.774Z,41.48
2019-04-21T00:33:13.850Z,41.33
2019-04-21T00:35:50.004Z,41.05
2019-04-21T00:38:32.173Z,41.20
2019-04-21T00:41:05.611Z,41.13
2019-04-21T00:43:32.917Z,40.99
2019-04-21T00:46:03.248Z,41.27
2019-04-21T00:48:47.597Z,40.99
2019-04-21T00:54:04.170Z,40.89
2019-04-21T00:56:27.872Z,41.14
2019-04-21T00:59:06.433Z,41.17
2019-04-21T01:01:33.788Z,41.13
2019-04-21T01:04:09.730Z,41.22
2019-04-21T01:06:46.793Z,41.00
2019-04-21T01:09:13.813Z,41.31
2019-04-21T01:11:49.532Z,41.39
2019-04-21T01:14:30.278Z,41.07
2019-04-21T01:17:01.836Z,41.35
2019-04-21T01:19:26.696Z,41.98
2019-04-21T01:21:40.852Z,41.99
2019-04-21T01:24:19.697Z,41.94
2019-04-21T01:26:59.618Z,42.32
2019-04-21T01:29:41.456Z,42.29
2019-04-21T01:32:19.620Z,42.48
2019-04-21T01:34:49.654Z,42.82
2019-04-21T01:37:14.550Z,42.01
2019-04-21T01:39:53.578Z,42.52
2019-04-21T01:42:28.553Z,42.13
2019-04-21T01:44:58.283Z,42.10
2019-04-21T01:47:25.181Z,42.60
2019-04-21T01:49:55.545Z,42.70
2019-04-21T01:52:47.180Z,43.36
2019-04-21T01:55:28.919Z,43.04
2019-04-21T01:58:09.361Z,43.04
2019-04-21T02:01:03.483Z,42.42
2019-04-21T02:06:18.212Z,42.83
2019-04-21T02:08:41.493Z,42.83
2019-04-21T02:11:26.414Z,42.77
2019-04-21T02:14:00.438Z,42.59
2019-04-21T02:16:25.172Z,42.79
2019-04-21T02:18:56.829Z,42.83
2019-04-21T02:21:30.475Z,42.97
2019-04-21T02:24:14.847Z,43.47
2019-04-21T02:26:41.463Z,43.41
2019-04-21T02:29:18.867Z,43.60
2019-04-21T02:32:11.757Z,43.48
2019-04-21T02:34:32.224Z,43.69
2019-04-21T02:37:17.740Z,43.43
2019-04-21T02:39:43.615Z,43.40
2019-04-21T02:42:15.710Z,43.38
2019-04-21T02:44:51.721Z,43.69
2019-04-21T02:47:32.987Z,43.58
2019-04-21T02:50:06.087Z,44.07
2019-04-21T02:55:04.081Z,44.09
2019-04-21T02:57:35.595Z,44.61
2019-04-21T03:00:18.631Z,44.90
2019-04-21T03:03:05.760Z,45.02
2019-04-21T03:08:35.943Z,46.01
2019-04-21T03:11:09.321Z,46.26
2019-04-21T03:13:42.965Z,46.24
2019-04-21T03:16:20.243Z,47.20
2019-04-21T03:18:48.222Z,47.64
2019-04-21T03:26:28.444Z,48.09
2019-04-21T03:28:56.688Z,48.52
2019-04-21T03:31:49.512Z,48.06
2019-04-21T03:39:01.201Z,47.06
2019-04-21T03:41:48.857Z,46.90
2019-04-21T03:44:12.447Z,46.53
2019-04-21T03:46:47.286Z,47.00
2019-04-21T03:49:30.438Z,47.15
2019-04-21T03:51:59.305Z,48.53
2019-04-21T03:54:26.962Z,50.36
2019-04-21T03:57:11.267Z,50.77
2019-04-21T03:59:24.719Z,49.35
2019-04-21T04:02:34.522Z,47.66
2019-04-21T04:05:15.215Z,47.72
2019-04-21T04:08:26.606Z,49.74
2019-04-21T04:10:34.360Z,49.03
2019-04-21T04:13:04.961Z,50.42
2019-04-21T04:15:56.555Z,51.79
2019-04-21T04:18:21.064Z,52.67
2019-04-21T04:20:43.793Z,54.11
2019-04-21T04:23:20.133Z,54.58
2019-04-21T04:25:53.601Z,54.48
2019-04-21T04:28:27.833Z,54.98
2019-04-21T04:31:05.063Z,54.86
2019-04-21T04:36:21.505Z,56.09
2019-04-21T04:39:01.064Z,56.51
2019-04-21T04:41:43.141Z,56.30
2019-04-21T04:44:04.907Z,56.24
2019-04-21T04:46:33.474Z,57.09
2019-04-21T04:49:27.975Z,56.07
2019-04-21T04:54:17.519Z,55.34
2019-04-21T04:56:47.651Z,55.81
2019-04-21T05:02:11.561Z,56.87
2019-04-21T05:04:30.241Z,57.26
2019-04-21T05:06:59.946Z,58.05
2019-04-21T05:12:01.947Z,57.98
2019-04-21T05:14:39.672Z,56.37
2019-04-21T05:17:17.100Z,53.86
2019-04-21T05:19:57.378Z,53.12
2019-04-21T05:22:20.262Z,53.06
2019-04-21T05:24:41.948Z,52.35
2019-04-21T05:27:29.365Z,51.92
2019-04-21T05:30:07.182Z,51.19
2019-04-21T05:33:00.071Z,50.44
2019-04-21T05:35:47.894Z,50.52
2019-04-21T05:38:27.386Z,49.41
2019-04-21T05:40:56.166Z,49.04
2019-04-21T05:43:45.482Z,49.69
2019-04-21T05:46:15.612Z,48.01
2019-04-21T05:48:46.904Z,47.89
2019-04-21T05:51:20.363Z,47.11
2019-04-21T05:53:55.742Z,46.25
2019-04-21T05:56:32.632Z,43.81
2019-04-21T05:59:03.389Z,44.95
2019-04-21T06:01:37.796Z,45.70
2019-04-21T06:04:16.868Z,43.26
2019-04-21T06:06:48.180Z,42.48
2019-04-21T06:09:21.320Z,40.74
2019-04-21T06:11:51.225Z,37.22
2019-04-21T06:14:31.202Z,34.83
2019-04-21T06:17:04.442Z,35.58
2019-04-21T06:19:36.755Z,33.54
2019-04-21T06:22:03.558Z,36.26
2019-04-21T06:24:43.826Z,35.83
2019-04-21T06:27:19.315Z,34.49
2019-04-21T06:29:43.685Z,35.55
2019-04-21T06:32:30.296Z,33.97
2019-04-21T06:35:14.913Z,33.32
2019-04-21T06:40:23.076Z,32.18
2019-04-21T06:42:35.310Z,31.57
2019-04-21T06:45:27.336Z,29.41
2019-04-21T06:47:57.779Z,29.20
2019-04-21T06:50:19.030Z,28.35
2019-04-21T06:52:53.907Z,28.61
2019-04-21T06:55:24.292Z,29.08
2019-04-21T06:57:51.861Z,27.85
2019-04-21T07:00:34.784Z,27.02
2019-04-21T07:03:17.139Z,29.30
2019-04-21T07:05:41.146Z,26.77
2019-04-21T07:08:21.901Z,26.70
2019-04-21T07:10:46.440Z,29.02
2019-04-21T07:13:15.394Z,27.71
2019-04-21T07:15:53.014Z,26.96
2019-04-21T07:18:31.071Z,27.28
2019-04-21T07:20:53.512Z,27.47
2019-04-21T07:23:31.940Z,28.98
2019-04-21T07:26:05.770Z,26.41
2019-04-21T07:28:38.930Z,25.68
2019-04-21T07:31:12.745Z,26.79
2019-04-21T07:33:53.787Z,25.09
2019-04-21T07:36:24.973Z,26.37
2019-04-21T07:38:46.520Z,25.13
2019-04-21T07:41:13.743Z,25.11
2019-04-21T07:43:55.384Z,26.91
2019-04-21T07:46:27.319Z,25.69
2019-04-21T07:49:12.761Z,26.82
2019-04-21T07:52:03.152Z,26.71
2019-04-21T07:54:40.849Z,28.26
2019-04-21T07:57:00.583Z,23.80
2019-04-21T07:59:52.418Z,25.18
2019-04-21T08:02:12.150Z,26.82
2019-04-21T08:05:07.467Z,25.09
2019-04-21T08:07:24.479Z,23.95
2019-04-21T08:09:51.099Z,26.16
2019-04-21T08:12:23.171Z,24.05
2019-04-21T08:15:03.213Z,23.36
2019-04-21T08:17:36.588Z,23.51
2019-04-21T08:20:07.751Z,24.89
2019-04-21T08:25:18.207Z,25.70
2019-04-21T08:27:54.514Z,25.49
2019-04-21T08:30:21.307Z,22.55
2019-04-21T08:37:56.490Z,28.03
2019-04-21T08:40:39.270Z,24.24
2019-04-21T08:43:09.146Z,22.50
2019-04-21T08:45:45.303Z,24.90
2019-04-21T08:50:44.160Z,22.33
2019-04-21T08:53:20.876Z,24.61
2019-04-21T08:58:58.519Z,21.69
2019-04-21T09:01:38.261Z,22.39
2019-04-21T09:04:18.518Z,22.14
2019-04-21T09:06:59.771Z,23.10
2019-04-21T09:09:19.870Z,23.56
2019-04-21T09:11:52.323Z,24.20
2019-04-21T09:14:28.759Z,21.20
2019-04-21T09:16:51.325Z,22.40
2019-04-21T09:19:38.729Z,21.74
2019-04-21T09:22:00.608Z,21.11
2019-04-21T09:24:33.401Z,23.43
2019-04-21T09:27:12.197Z,22.58
2019-04-21T09:29:32.429Z,20.86
2019-04-21T09:31:59.592Z,20.80
2019-04-21T09:34:36.586Z,21.97
2019-04-21T09:37:19.096Z,23.13
2019-04-21T09:39:40.960Z,21.45
2019-04-21T09:42:11.424Z,20.46
2019-04-21T09:44:45.746Z,21.27
2019-04-21T09:47:21.222Z,20.73
2019-04-21T09:49:49.461Z,20.09
2019-04-21T09:52:27.873Z,22.59
2019-04-21T09:55:03.921Z,20.95
2019-04-21T09:57:39.169Z,20.48
2019-04-21T10:00:12.008Z,21.07
2019-04-21T10:02:42.839Z,20.51
2019-04-21T10:05:09.955Z,20.38
2019-04-21T10:07:42.962Z,19.21
2019-04-21T10:10:15.327Z,20.93
2019-04-21T10:12:47.752Z,20.20
2019-04-21T10:15:21.976Z,20.80
2019-04-21T10:17:56.166Z,21.27
2019-04-21T10:20:28.553Z,19.25
2019-04-21T10:23:00.037Z,19.98
2019-04-21T10:25:32.400Z,20.45
2019-04-21T10:28:05.166Z,20.31
2019-04-21T10:30:36.759Z,18.43
2019-04-21T10:33:08.429Z,19.94
2019-04-21T10:35:41.281Z,20.01
2019-04-21T10:38:22.979Z,18.96
2019-04-21T10:40:47.605Z,19.03
2019-04-21T10:43:22.162Z,16.90
2019-04-21T10:45:52.821Z,18.35
2019-04-21T10:48:25.167Z,19.05
2019-04-21T10:50:57.090Z,19.10
2019-04-21T10:53:31.739Z,17.29
2019-04-21T10:56:15.434Z,18.66
2019-04-21T10:58:42.396Z,19.39
2019-04-21T11:01:19.183Z,17.39
2019-04-21T11:03:55.088Z,18.37
2019-04-21T11:06:26.674Z,17.85
2019-04-21T11:09:01.022Z,18.86
2019-04-21T11:11:34.119Z,19.80
2019-04-21T11:14:06.586Z,19.24
2019-04-21T11:16:39.218Z,17.75
2019-04-21T11:19:11.795Z,17.68
2019-04-21T11:21:43.243Z,19.17
2019-04-21T11:24:14.677Z,18.82
2019-04-21T11:26:46.032Z,18.28
2019-04-21T11:29:19.016Z,18.31
2019-04-21T11:31:51.370Z,17.15
2019-04-21T11:34:23.130Z,18.09
2019-04-21T11:36:56.272Z,18.16
2019-04-21T11:39:39.547Z,17.79
2019-04-21T11:42:10.282Z,18.37
2019-04-21T11:44:41.809Z,18.67
2019-04-21T11:47:22.695Z,18.24
2019-04-21T11:49:54.940Z,18.20
2019-04-21T11:52:27.152Z,18.24
2019-04-21T11:54:58.739Z,18.08
2019-04-21T11:57:35.572Z,17.05
2019-04-21T12:00:03.971Z,15.90
2019-04-21T12:02:37.453Z,17.42
2019-04-21T12:05:10.155Z,17.61
2019-04-21T12:07:43.092Z,14.90
2019-04-21T12:10:15.757Z,17.72
2019-04-21T12:12:47.531Z,16.80
2019-04-21T12:15:19.077Z,17.85
2019-04-21T12:17:52.171Z,17.13
2019-04-21T12:20:24.431Z,15.30
2019-04-21T12:22:56.998Z,17.74
2019-04-21T12:25:31.356Z,17.98
2019-04-21T12:28:03.642Z,17.45
2019-04-21T12:30:35.760Z,16.07
2019-04-21T12:33:18.175Z,17.24
2019-04-21T12:35:51.564Z,16.29
2019-04-21T12:38:33.342Z,16.54
2019-04-21T12:40:56.931Z,17.79
2019-04-21T12:43:28.614Z,16.89
2019-04-21T12:46:00.195Z,16.07
2019-04-21T12:48:31.858Z,17.58
2019-04-21T12:51:03.865Z,16.97
2019-04-21T12:53:35.912Z,16.23
2019-04-21T12:56:07.597Z,17.36
2019-04-21T12:58:39.550Z,15.99
2019-04-21T13:01:11.086Z,14.79
2019-04-21T13:03:43.705Z,15.62
2019-04-21T13:06:15.889Z,17.09
2019-04-21T13:08:55.581Z,14.81
2019-04-21T13:11:21.391Z,16.99
2019-04-21T13:13:53.679Z,15.87
2019-04-21T13:16:25.458Z,16.29
2019-04-21T13:18:57.610Z,15.12
2019-04-21T13:21:29.958Z,16.42
2019-04-21T13:24:01.500Z,18.50
2019-04-21T13:26:43.088Z,15.73
2019-04-21T13:29:06.443Z,15.73
2019-04-21T13:31:38.440Z,15.43
2019-04-21T13:34:10.477Z,15.97
2019-04-21T13:36:43.623Z,16.31
2019-04-21T13:39:55.229Z,16.32
2019-04-21T13:42:16.090Z,16.11
2019-04-21T13:44:39.308Z,15.76
2019-04-21T13:47:10.687Z,16.08
2019-04-21T13:49:43.396Z,16.65
2019-04-21T13:52:15.055Z,15.41
2019-04-21T13:54:47.453Z,16.32
2019-04-21T13:57:20.690Z,16.00
2019-04-21T13:59:53.135Z,14.28
2019-04-21T14:02:24.918Z,16.65
2019-04-21T14:04:56.377Z,17.21
2019-04-21T14:07:28.032Z,14.32
2019-04-21T14:10:04.436Z,15.20
2019-04-21T14:12:33.225Z,14.29
2019-04-21T14:15:06.262Z,14.73
2019-04-21T14:17:39.114Z,14.66
2019-04-21T14:20:13.212Z,14.30
2019-04-21T14:22:44.560Z,15.09
2019-04-21T14:25:17.468Z,14.63
2019-04-21T14:27:51.694Z,15.18
2019-04-21T14:30:23.067Z,15.13
2019-04-21T14:32:54.429Z,14.39
2019-04-21T14:35:27.142Z,14.38
2019-04-21T14:37:58.775Z,13.94
2019-04-21T14:40:33.209Z,14.03
2019-04-21T14:43:03.721Z,16.32
2019-04-21T14:45:56.713Z,14.96
2019-04-21T14:48:45.727Z,16.41
2019-04-21T14:51:25.237Z,14.35
2019-04-21T14:54:22.506Z,15.87
2019-04-21T14:56:55.570Z,15.66
2019-04-21T14:59:27.032Z,16.45
2019-04-21T15:01:59.853Z,16.60
2019-04-21T15:04:31.644Z,15.82
2019-04-21T15:07:03.589Z,15.75
2019-04-21T15:09:37.079Z,15.24
2019-04-21T15:12:09.673Z,15.47
2019-04-21T15:14:42.264Z,15.69
2019-04-21T15:17:16.229Z,15.88
2019-04-21T15:19:50.910Z,17.12
2019-04-21T15:22:20.867Z,16.17
2019-04-21T15:24:52.326Z,18.64
2019-04-21T15:27:24.868Z,17.55
2019-04-21T15:29:56.505Z,17.34
2019-04-21T15:32:28.489Z,17.00
2019-04-21T15:35:00.343Z,16.42
2019-04-21T15:37:31.722Z,16.20
2019-04-21T15:40:15.604Z,16.62
2019-04-21T15:42:38.922Z,17.13
2019-04-21T15:45:12.679Z,17.39
2019-04-21T15:47:44.258Z,16.39
2019-04-21T15:50:20.126Z,16.55
2019-04-21T15:52:53.775Z,16.37
2019-04-21T15:55:44.561Z,18.18
2019-04-21T15:58:24.780Z,17.21
2019-04-21T16:01:02.652Z,16.52
2019-04-21T16:03:34.556Z,17.24
2019-04-21T16:06:07.553Z,16.76
2019-04-21T16:08:39.841Z,17.68
2019-04-21T16:11:11.479Z,18.10
2019-04-21T16:13:43.605Z,18.98
2019-04-21T16:16:16.621Z,18.61
2019-04-21T16:18:50.120Z,17.89
2019-04-21T16:21:22.091Z,17.20
2019-04-21T16:23:54.130Z,18.01
2019-04-21T16:26:26.833Z,17.87
2019-04-21T16:28:59.342Z,18.04
2019-04-21T16:31:32.223Z,18.21
2019-04-21T16:34:04.994Z,18.15
2019-04-21T16:36:36.402Z,19.04
2019-04-21T16:39:09.574Z,18.87
2019-04-21T16:41:42.389Z,19.45
2019-04-21T16:44:13.962Z,19.59
2019-04-21T16:46:45.658Z,19.85
2019-04-21T16:49:17.865Z,19.30
2019-04-21T16:52:09.927Z,20.03
2019-04-21T16:54:44.017Z,19.90
2019-04-21T16:57:23.939Z,19.98
2019-04-21T16:59:58.420Z,20.15
2019-04-21T17:02:30.432Z,20.98
2019-04-21T17:05:02.644Z,21.08
2019-04-21T17:07:34.367Z,21.63
2019-04-21T17:10:06.641Z,22.45
2019-04-21T17:12:39.481Z,22.46
2019-04-21T17:15:31.496Z,23.00
2019-04-21T17:18:06.057Z,23.02
2019-04-21T17:20:33.369Z,23.98
2019-04-21T17:22:53.638Z,23.97
2019-04-21T17:25:27.804Z,24.01
2019-04-21T17:27:58.839Z,24.37
2019-04-21T17:30:30.582Z,24.56
2019-04-21T17:33:03.449Z,24.74
2019-04-21T17:35:36.111Z,25.30
2019-04-21T17:38:07.997Z,25.93
2019-04-21T17:40:39.967Z,26.79
2019-04-21T17:43:14.717Z,26.95
2019-04-21T17:45:45.026Z,28.16
2019-04-21T17:48:18.075Z,28.98
2019-04-21T17:51:07.481Z,29.20
2019-04-21T17:53:56.798Z,29.57
2019-04-21T17:56:56.295Z,30.22
2019-04-21T17:59:35.882Z,31.29
2019-04-21T18:01:56.311Z,31.47
2019-04-21T18:04:26.051Z,31.67
2019-04-21T18:07:08.464Z,32.23
2019-04-21T18:09:56.499Z,32.91
2019-04-21T18:12:26.629Z,34.46
2019-04-21T18:14:53.022Z,35.10
2019-04-21T18:17:16.616Z,35.75
2019-04-21T18:19:51.331Z,35.88
2019-04-21T18:22:41.725Z,36.50
2019-04-21T18:25:27.964Z,37.41
2019-04-21T18:27:50.267Z,37.03
2019-04-21T18:30:48.744Z,37.13
2019-04-21T18:33:28.050Z,37.81
2019-04-21T18:36:29.248Z,37.40
2019-04-21T18:39:17.535Z,37.82
2019-04-21T18:42:02.624Z,38.47
2019-04-21T18:45:06.514Z,36.48
2019-04-21T18:47:31.925Z,38.40
2019-04-21T18:49:52.389Z,35.83
2019-04-21T18:52:45.196Z,35.67
2019-04-21T18:55:16.594Z,36.81
2019-04-21T18:57:42.275Z,37.54
2019-04-21T19:00:19.333Z,36.86
2019-04-21T19:02:47.467Z,35.62
2019-04-21T19:05:17.649Z,38.63
2019-04-21T19:08:04.443Z,38.80
2019-04-21T19:10:43.534Z,39.44
2019-04-21T19:16:01.372Z,37.78
2019-04-21T19:20:57.262Z,39.49
2019-04-21T19:23:33.766Z,36.82
2019-04-21T19:26:09.953Z,37.72
2019-04-21T19:28:36.094Z,38.64
2019-04-21T19:31:11.595Z,39.38
2019-04-21T19:33:33.107Z,40.26
2019-04-21T19:35:55.275Z,40.99
2019-04-21T19:38:32.810Z,41.07
2019-04-21T19:41:15.535Z,40.96
2019-04-21T19:43:52.295Z,40.03
2019-04-21T19:46:26.459Z,37.72
2019-04-21T19:49:00.891Z,38.39
2019-04-21T19:51:29.023Z,38.06
2019-04-21T19:53:56.028Z,37.42
2019-04-21T19:56:20.122Z,38.77
2019-04-21T19:58:52.960Z,39.04
2019-04-21T20:01:25.510Z,39.50
2019-04-21T20:04:00.779Z,39.82
2019-04-21T20:06:45.613Z,41.27
2019-04-21T20:09:26.375Z,42.08
2019-04-21T20:11:56.828Z,42.03
2019-04-21T20:14:47.811Z,42.24
2019-04-21T20:17:00.596Z,42.18
2019-04-21T20:19:19.648Z,42.10
2019-04-21T20:21:53.380Z,42.33
2019-04-21T20:24:28.310Z,42.06
2019-04-21T20:27:06.942Z,41.79
2019-04-21T20:29:48.821Z,42.70
2019-04-21T20:32:38.399Z,42.68
2019-04-21T20:35:01.388Z,43.58
2019-04-21T20:37:26.821Z,43.18
2019-04-21T20:39:50.257Z,43.20
2019-04-21T20:42:35.089Z,43.90
2019-04-21T20:45:25.214Z,43.64
2019-04-21T20:47:35.222Z,43.68
2019-04-21T20:50:14.016Z,42.77
2019-04-21T20:52:55.143Z,43.26
2019-04-21T20:55:16.601Z,42.62
2019-04-21T20:57:50.627Z,42.89
2019-04-21T21:00:32.573Z,43.17
2019-04-21T21:03:10.332Z,43.16
2019-04-21T21:05:30.535Z,43.15
2019-04-21T21:08:11.786Z,43.05
2019-04-21T21:10:38.560Z,42.77
2019-04-21T21:13:22.198Z,43.69
2019-04-21T21:16:01.905Z,43.41
2019-04-21T21:18:38.476Z,43.49
2019-04-21T21:20:56.482Z,44.01
2019-04-21T21:23:29.109Z,43.39
2019-04-21T21:26:01.979Z,44.48
2019-04-21T21:28:32.594Z,43.56
2019-04-21T21:31:09.665Z,44.76
2019-04-21T21:33:51.827Z,45.25
2019-04-21T21:36:16.702Z,45.38
2019-04-21T21:38:53.000Z,46.28
2019-04-21T21:41:15.310Z,45.87
2019-04-21T21:43:39.137Z,45.16
2019-04-21T21:46:24.994Z,46.31
2019-04-21T21:48:53.610Z,46.94
2019-04-21T21:51:29.085Z,46.07
2019-04-21T21:53:50.626Z,47.03
2019-04-21T21:56:22.659Z,45.65
2019-04-21T21:58:55.208Z,45.69
2019-04-21T22:01:34.310Z,46.47
2019-04-21T22:04:09.249Z,45.92
2019-04-21T22:06:42.050Z,45.95
2019-04-21T22:09:12.501Z,45.23
2019-04-21T22:11:44.497Z,46.20
2019-04-21T22:14:22.947Z,46.36
2019-04-21T22:17:07.575Z,45.93
2019-04-21T22:19:48.570Z,45.04
2019-04-21T22:22:14.094Z,45.30
2019-04-21T22:24:46.851Z,45.83
2019-04-21T22:27:03.133Z,45.53
2019-04-21T22:29:41.354Z,46.81
2019-04-21T22:32:14.833Z,46.34
2019-04-21T22:34:47.708Z,46.44
2019-04-21T22:37:30.864Z,46.07
2019-04-21T22:40:02.086Z,46.25
2019-04-21T22:42:26.998Z,45.69
2019-04-21T22:44:54.555Z,45.83
2019-04-21T22:47:32.189Z,45.35
2019-04-21T22:49:59.586Z,45.67
2019-04-21T22:52:32.336Z,45.71
2019-04-21T22:55:11.950Z,45.39
2019-04-21T22:57:46.000Z,46.61
2019-04-21T23:00:16.717Z,46.08
2019-04-21T23:02:52.589Z,46.21
2019-04-21T23:05:28.170Z,45.89
2019-04-21T23:07:59.980Z,46.26
2019-04-21T23:10:29.424Z,46.03
2019-04-21T23:13:09.644Z,46.08
2019-04-21T23:15:42.430Z,46.23
2019-04-21T23:18:25.957Z,45.29
2019-04-21T23:20:59.166Z,46.16
2019-04-21T23:23:35.870Z,45.37
2019-04-21T23:26:13.122Z,45.43
2019-04-21T23:28:45.595Z,45.95
2019-04-21T23:31:11.082Z,46.28
2019-04-21T23:33:29.026Z,45.94
2019-04-21T23:36:09.669Z,45.88
2019-04-21T23:38:41.716Z,45.11
2019-04-21T23:41:11.016Z,45.48
2019-04-21T23:43:40.551Z,45.46
2019-04-21T23:46:22.047Z,45.22
2019-04-21T23:49:01.706Z,46.26
2019-04-21T23:51:30.128Z,46.25
2019-04-21T23:53:53.418Z,46.29
2019-04-21T23:56:31.524Z,46.13
2019-04-21T23:59:03.201Z,46.25
